Time;durP1;ratioP1;P1;durP2;ratioP2;P2;SDS_P1;SDS_P2;PMS_P1;PMS_P2;Temp;Humidity;BMP_temperature;BMP_pressure;BME280_temperature;BME280_humidity;BME280_pressure;Samples;Min_cycle;Max_cycle;Signal;HPM_P1;HPM_P2
2022/11/27 00:01:40;;;;;;;30.30;18.05;;;;;;;9.85;56.57;101849.94;5050028;28;20029;-76
2022/11/27 00:04:07;;;;;;;32.13;19.38;;;;;;;9.84;56.62;101848.25;5049376;28;20032;-76
2022/11/27 00:06:34;;;;;;;34.15;19.75;;;;;;;9.79;57.08;101853.00;5049145;28;20033;-76
2022/11/27 00:09:01;;;;;;;30.35;18.95;;;;;;;9.72;56.39;101824.75;5049508;28;20040;-76
2022/11/27 00:11:28;;;;;;;34.00;18.48;;;;;;;9.84;56.79;101863.50;5051961;28;20447;-77
2022/11/27 00:13:54;;;;;;;31.75;17.83;;;;;;;9.88;56.99;101864.19;5053765;28;20043;-76
2022/11/27 00:16:21;;;;;;;31.63;19.33;;;;;;;9.81;56.62;101832.25;5053053;28;20420;-76
2022/11/27 00:18:47;;;;;;;33.35;19.67;;;;;;;9.93;56.54;101867.44;5059035;28;20062;-76
2022/11/27 00:21:21;;;;;;;39.92;19.88;;;;;;;9.97;56.59;101871.69;5061463;28;20036;-76
2022/11/27 00:23:47;;;;;;;34.63;20.13;;;;;;;9.91;56.57;101862.16;5060927;28;20037;-76
2022/11/27 00:26:13;;;;;;;32.00;19.50;;;;;;;9.92;56.60;101873.78;5059098;28;20067;-78
2022/11/27 00:28:39;;;;;;;32.60;19.60;;;;;;;9.75;56.90;101864.88;5053733;28;20119;-76
2022/11/27 00:31:07;;;;;;;37.10;19.80;;;;;;;9.84;56.80;101872.41;5053071;28;20407;-76
2022/11/27 00:33:33;;;;;;;35.83;22.42;;;;;;;9.84;56.73;101882.28;5051062;28;20465;-76
2022/11/27 00:36:07;;;;;;;32.83;19.00;;;;;;;9.89;57.03;101884.69;5053286;28;20036;-76
2022/11/27 00:38:33;;;;;;;31.13;19.90;;;;;;;9.92;56.80;101889.91;5052887;28;20503;-76
2022/11/27 00:41:10;;;;;;;29.30;17.60;;;;;;;9.95;57.08;101878.97;5053171;28;20531;-76
2022/11/27 00:43:36;;;;;;;38.08;20.35;;;;;;;9.96;56.64;101883.38;5052998;28;20461;-76
2022/11/27 00:46:03;;;;;;;35.05;20.10;;;;;;;9.88;56.71;101866.88;5052768;28;20029;-76
2022/11/27 00:48:28;;;;;;;33.65;19.15;;;;;;;9.94;56.65;101870.03;5052737;28;20037;-76
2022/11/27 00:51:06;;;;;;;34.47;19.88;;;;;;;9.83;56.56;101851.88;5052423;28;20049;-77
2022/11/27 00:53:32;;;;;;;37.20;20.92;;;;;;;9.88;56.84;101867.69;5052480;28;20408;-76
2022/11/27 00:55:58;;;;;;;33.08;19.35;;;;;;;9.82;56.91;101860.00;5052701;28;20029;-76
2022/11/27 00:58:25;;;;;;;36.38;20.95;;;;;;;9.63;57.16;101829.81;5052418;28;20032;-76
2022/11/27 01:01:05;;;;;;;49.10;25.08;;;;;;;9.88;57.51;101859.63;5052758;28;20381;-75
2022/11/27 01:03:31;;;;;;;48.90;25.20;;;;;;;9.89;57.32;101861.38;5052359;28;20400;-76
2022/11/27 01:06:05;;;;;;;54.10;25.15;;;;;;;10.00;57.26;101871.50;5052500;28;20369;-76
2022/11/27 01:08:31;;;;;;;54.70;27.58;;;;;;;9.92;57.28;101863.03;5052471;28;20040;-76
2022/11/27 01:10:57;;;;;;;41.03;22.90;;;;;;;9.87;57.12;101860.63;5052454;28;20037;-77
2022/11/27 01:13:31;;;;;;;39.25;21.98;;;;;;;9.91;57.39;101869.38;5052592;28;20534;-77
2022/11/27 01:16:12;;;;;;;37.55;21.38;;;;;;;9.90;57.25;101870.31;5052214;28;20087;-77
2022/11/27 01:18:39;;;;;;;38.47;21.13;;;;;;;9.92;57.22;101852.28;5051993;28;20017;-77
2022/11/27 01:21:06;;;;;;;35.50;21.40;;;;;;;9.82;57.07;101874.31;5052493;28;20385;-77
2022/11/27 01:23:31;;;;;;;35.00;21.27;;;;;;;9.87;57.65;101871.38;5052626;28;20108;-77
2022/11/27 01:26:00;;;;;;;33.13;20.17;;;;;;;9.76;57.31;101855.84;5052380;28;20055;-77
2022/11/27 01:28:26;;;;;;;37.03;21.15;;;;;;;9.79;57.58;101863.75;5056260;28;20066;-76
2022/11/27 01:30:51;;;;;;;37.67;21.40;;;;;;;9.76;57.81;101868.41;5063991;28;20045;-76
2022/11/27 01:33:18;;;;;;;37.75;20.85;;;;;;;9.53;57.73;101828.63;5063254;28;20401;-77
2022/11/27 01:35:58;;;;;;;37.97;21.17;;;;;;;9.56;58.39;101834.69;5052838;28;20025;-76
2022/11/27 01:38:24;;;;;;;39.05;23.30;;;;;;;9.51;58.11;101828.69;5050191;28;20053;-77
2022/11/27 01:41:21;;;;;;;38.30;22.17;;;;;;;9.75;58.73;101870.25;5051715;28;20036;-76
2022/11/27 01:43:52;;;;;;;63.17;24.40;;;;;;;9.81;58.39;101867.19;5015725;28;20088;-76
2022/11/27 01:46:23;;;;;;;35.78;20.85;;;;;;;9.83;58.17;101869.81;4993980;28;20117;-75
2022/11/27 01:48:51;;;;;;;35.63;21.13;;;;;;;9.80;58.21;101862.78;5009302;28;20605;-76
2022/11/27 01:51:18;;;;;;;31.50;19.63;;;;;;;9.88;57.80;101872.25;5009689;28;20120;-76
2022/11/27 01:53:44;;;;;;;37.42;21.63;;;;;;;9.84;57.92;101867.03;5009357;28;20021;-76
2022/11/27 01:56:10;;;;;;;38.63;20.15;;;;;;;9.69;57.67;101832.16;5009517;28;20066;-77
2022/11/27 01:58:37;;;;;;;37.35;20.92;;;;;;;9.86;57.73;101869.63;5009483;28;20060;-76
2022/11/27 02:01:04;;;;;;;33.55;20.88;;;;;;;9.82;58.04;101863.56;5009282;28;20034;-76
2022/11/27 02:03:29;;;;;;;37.33;20.20;;;;;;;9.72;58.50;101867.72;5009141;28;20144;-76
2022/11/27 02:05:55;;;;;;;36.28;20.92;;;;;;;9.65;58.36;101854.75;5008567;28;20105;-78
2022/11/27 02:08:20;;;;;;;32.60;20.13;;;;;;;9.77;58.45;101881.78;5008943;28;20049;-76
2022/11/27 02:11:22;;;;;;;37.08;20.42;;;;;;;9.66;58.64;101862.72;5008881;28;20060;-75
2022/11/27 02:14:02;;;;;;;36.63;20.90;;;;;;;9.77;58.53;101876.41;4950752;28;20039;-77
2022/11/27 02:16:42;;;;;;;36.97;21.38;;;;;;;9.75;58.66;101872.09;4950776;28;20326;-76
2022/11/27 02:19:38;;;;;;;35.67;19.38;;;;;;;9.74;58.77;101878.41;4950639;29;20081;-76
2022/11/27 02:22:10;;;;;;;34.65;19.50;;;;;;;9.70;58.88;101885.78;4989092;28;20114;-76
2022/11/27 02:25:10;;;;;;;38.40;20.70;;;;;;;9.65;58.87;101890.56;4989351;28;20387;-76
2022/11/27 02:27:51;;;;;;;34.90;20.45;;;;;;;9.67;58.90;101883.25;4969302;28;20038;-77
2022/11/27 02:30:16;;;;;;;41.08;20.63;;;;;;;9.63;59.04;101884.38;4969733;28;20505;-78
2022/11/27 02:32:58;;;;;;;33.95;20.05;;;;;;;9.45;59.10;101855.91;4969347;28;20034;-76
2022/11/27 02:36:05;;;;;;;31.15;18.23;;;;;;;9.61;59.29;101890.81;4969813;28;20035;-77
2022/11/27 02:38:38;;;;;;;30.23;19.45;;;;;;;9.53;59.36;101883.19;4904101;29;20108;-77
2022/11/27 02:41:11;;;;;;;28.63;18.17;;;;;;;9.47;59.75;101880.84;4904262;29;20118;-76
2022/11/27 02:43:41;;;;;;;36.08;18.92;;;;;;;9.39;59.69;101875.03;4894404;29;20055;-76
2022/11/27 02:46:08;;;;;;;32.50;17.30;;;;;;;9.32;60.20;101879.03;4893089;29;20096;-76
2022/11/27 02:48:43;;;;;;;26.85;16.38;;;;;;;9.07;60.33;101835.72;4893038;29;20096;-77
2022/11/27 02:51:12;;;;;;;30.08;16.85;;;;;;;9.25;60.65;101880.34;4933857;28;20207;-76
2022/11/27 02:53:45;;;;;;;29.02;16.90;;;;;;;9.27;60.75;101875.72;4950497;28;20114;-76
2022/11/27 02:56:15;;;;;;;29.20;15.23;;;;;;;9.25;60.83;101869.59;4950342;29;20047;-77
2022/11/27 02:58:41;;;;;;;26.88;15.75;;;;;;;9.21;60.91;101882.31;4950006;28;20039;-77
2022/11/27 03:01:08;;;;;;;23.73;15.13;;;;;;;9.23;60.49;101879.56;4950290;28;20118;-76
2022/11/27 03:03:42;;;;;;;28.80;15.07;;;;;;;9.18;60.78;101887.84;4954757;28;20053;-76
2022/11/27 03:06:11;;;;;;;28.58;17.25;;;;;;;9.07;60.86;101870.63;4970891;28;20069;-76
2022/11/27 03:08:49;;;;;;;25.73;15.98;;;;;;;9.10;60.80;101884.75;4973865;28;20043;-77
2022/11/27 03:11:15;;;;;;;34.13;16.65;;;;;;;9.07;61.22;101881.34;4953936;28;20042;-76
2022/11/27 03:13:51;;;;;;;31.08;16.80;;;;;;;8.99;61.70;101880.91;4969409;28;20387;-77
2022/11/27 03:16:42;;;;;;;31.35;17.05;;;;;;;8.92;61.89;101890.25;5045747;28;20076;-76
2022/11/27 03:19:17;;;;;;;36.05;18.15;;;;;;;8.81;62.02;101872.03;5050192;28;20460;-75
2022/11/27 03:21:47;;;;;;;36.95;18.88;;;;;;;8.82;61.79;101879.13;5049925;28;20385;-76
2022/11/27 03:24:13;;;;;;;31.20;18.80;;;;;;;8.82;61.88;101873.78;5050096;28;20044;-76
2022/11/27 03:26:40;;;;;;;34.17;17.58;;;;;;;8.77;61.94;101880.34;5049896;28;20609;-76
2022/11/27 03:29:09;;;;;;;34.92;18.85;;;;;;;8.77;62.36;101884.75;5049752;28;20032;-77
2022/11/27 03:31:36;;;;;;;32.10;18.65;;;;;;;8.69;62.03;101878.06;5050367;28;20021;-77
2022/11/27 03:34:03;;;;;;;38.05;19.98;;;;;;;8.55;62.62;101860.03;5050279;28;20033;-76
2022/11/27 03:36:28;;;;;;;35.63;20.10;;;;;;;8.67;62.28;101863.88;5050058;28;20193;-77
2022/11/27 03:38:54;;;;;;;39.60;21.23;;;;;;;8.54;62.56;101858.31;5049703;28;20033;-76
2022/11/27 03:42:02;;;;;;;33.00;20.05;;;;;;;8.64;62.72;101874.78;5049870;28;20472;-78
2022/11/27 03:44:55;;;;;;;33.38;18.90;;;;;;;8.66;62.58;101868.38;5011698;28;20098;-76
2022/11/27 03:47:39;;;;;;;30.65;18.77;;;;;;;8.67;62.55;101864.75;5022022;28;20137;-77
2022/11/27 03:50:23;;;;;;;31.40;18.50;;;;;;;8.63;62.38;101863.16;5018984;28;20132;-76
2022/11/27 03:53:00;;;;;;;36.60;18.65;;;;;;;8.64;62.52;101870.28;5012171;28;20041;-78
2022/11/27 03:55:26;;;;;;;31.90;18.10;;;;;;;8.70;62.32;101878.00;5011357;28;20053;-76
2022/11/27 03:58:01;;;;;;;31.15;18.90;;;;;;;8.62;62.31;101868.63;5011491;28;20045;-75
2022/11/27 04:00:31;;;;;;;30.63;17.65;;;;;;;8.66;61.97;101867.50;5011542;28;20026;-77
2022/11/27 04:02:57;;;;;;;33.00;19.38;;;;;;;8.40;62.42;101834.06;5011411;28;20057;-77
2022/11/27 04:05:23;;;;;;;32.88;19.58;;;;;;;8.61;62.52;101865.06;5010988;28;20038;-77
2022/11/27 04:07:49;;;;;;;34.63;20.50;;;;;;;8.35;62.71;101838.78;5011355;28;20053;-75
2022/11/27 04:10:14;;;;;;;37.28;21.77;;;;;;;8.60;62.41;101866.00;5011277;28;20438;-77
2022/11/27 04:12:40;;;;;;;29.73;19.63;;;;;;;8.54;62.48;101870.84;5011415;28;20026;-77
2022/11/27 04:15:06;;;;;;;35.42;20.10;;;;;;;8.53;62.51;101867.28;5010628;28;20104;-77
2022/11/27 04:17:32;;;;;;;40.28;20.30;;;;;;;8.57;62.65;101876.91;5010977;28;20034;-76
2022/11/27 04:19:57;;;;;;;36.03;21.52;;;;;;;8.58;62.65;101880.47;5010888;28;20101;-75
2022/11/27 04:22:23;;;;;;;33.40;19.83;;;;;;;8.25;63.11;101837.50;5047957;28;20040;-76
2022/11/27 04:24:48;;;;;;;41.20;21.15;;;;;;;8.37;63.45;101861.03;5053116;28;20029;-77
2022/11/27 04:27:14;;;;;;;40.17;22.67;;;;;;;8.24;63.32;101865.25;5053072;28;20036;-78
2022/11/27 04:29:39;;;;;;;33.85;19.50;;;;;;;8.34;63.79;101869.22;5053294;28;20116;-76
2022/11/27 04:32:05;;;;;;;38.47;21.17;;;;;;;8.16;63.34;101835.31;5059124;28;20053;-77
2022/11/27 04:34:31;;;;;;;42.17;21.13;;;;;;;8.12;63.49;101826.56;5053759;28;20040;-76
2022/11/27 04:36:57;;;;;;;38.88;21.80;;;;;;;8.33;63.47;101864.78;5053422;28;20060;-76
2022/11/27 04:39:22;;;;;;;37.90;21.42;;;;;;;8.33;63.45;101872.84;5053326;28;20454;-76
2022/11/27 04:41:48;;;;;;;35.25;20.73;;;;;;;7.98;63.88;101833.59;5053096;28;20047;-76
2022/11/27 04:44:13;;;;;;;37.70;21.73;;;;;;;7.86;63.58;101802.06;5052802;28;20036;-77
2022/11/27 04:46:39;;;;;;;36.72;22.65;;;;;;;7.83;63.50;101810.25;5052862;28;20039;-76
2022/11/27 04:49:04;;;;;;;36.75;20.42;;;;;;;8.13;64.03;101867.63;5053040;28;20437;-77
2022/11/27 04:51:30;;;;;;;34.40;18.65;;;;;;;8.13;63.99;101883.69;5052113;28;20025;-77
2022/11/27 04:53:55;;;;;;;39.42;20.67;;;;;;;8.06;63.89;101890.31;5060274;28;20476;-77
2022/11/27 04:56:21;;;;;;;32.60;18.70;;;;;;;8.06;63.85;101887.63;5064248;28;20025;-77
2022/11/27 04:58:46;;;;;;;36.40;20.58;;;;;;;7.83;64.25;101847.75;5056603;28;20112;-77
2022/11/27 05:01:12;;;;;;;35.85;19.90;;;;;;;7.94;64.14;101880.22;5052676;28;20036;-76
2022/11/27 05:03:37;;;;;;;34.22;19.45;;;;;;;7.89;64.11;101880.44;5051759;28;20029;-75
2022/11/27 05:06:03;;;;;;;38.33;20.70;;;;;;;7.86;64.43;101887.78;5052615;28;20032;-77
2022/11/27 05:08:30;;;;;;;36.15;20.17;;;;;;;7.78;64.95;101885.47;5054423;28;20799;-76
2022/11/27 05:11:04;;;;;;;31.98;17.40;;;;;;;7.80;64.98;101880.06;5056381;28;20048;-77
2022/11/27 05:13:30;;;;;;;39.40;20.08;;;;;;;7.76;64.90;101882.00;5055771;28;20128;-76
2022/11/27 05:15:56;;;;;;;41.75;21.92;;;;;;;7.80;64.31;101880.06;5053021;28;20068;-76
2022/11/27 05:18:21;;;;;;;43.10;23.40;;;;;;;7.82;64.53;101873.66;5050768;28;20025;-75
2022/11/27 05:20:47;;;;;;;32.80;18.92;;;;;;;7.83;64.43;101880.75;5050191;28;20044;-77
2022/11/27 05:23:12;;;;;;;30.95;17.70;;;;;;;7.63;64.26;101838.03;5049099;28;20045;-76
2022/11/27 05:25:38;;;;;;;34.35;18.30;;;;;;;7.83;64.50;101879.91;5052595;28;20447;-76
2022/11/27 05:28:04;;;;;;;33.90;17.95;;;;;;;7.64;64.73;101847.81;5053479;28;20110;-76
2022/11/27 05:30:29;;;;;;;34.97;17.77;;;;;;;7.84;64.78;101881.63;5050930;28;20116;-77
2022/11/27 05:32:55;;;;;;;36.70;19.98;;;;;;;7.86;64.47;101885.94;5050220;28;20480;-76
2022/11/27 05:35:20;;;;;;;32.17;17.85;;;;;;;7.87;65.16;101892.16;5050804;28;20467;-77
2022/11/27 05:37:45;;;;;;;34.17;19.98;;;;;;;7.76;64.28;101873.97;5050325;28;20055;-77
2022/11/27 05:40:11;;;;;;;36.85;18.27;;;;;;;7.90;64.34;101892.03;5050501;28;20034;-76
2022/11/27 05:42:37;;;;;;;38.78;17.70;;;;;;;7.98;64.52;101901.41;5047355;28;20013;-78
2022/11/27 05:45:02;;;;;;;32.17;17.63;;;;;;;7.70;64.69;101862.69;5050981;28;20387;-76
2022/11/27 05:47:28;;;;;;;34.22;17.85;;;;;;;7.97;64.15;101904.16;5050362;28;20036;-77
2022/11/27 05:49:53;;;;;;;33.95;18.15;;;;;;;7.80;64.20;101863.97;5012292;28;1162033;-77
2022/11/27 05:52:19;;;;;;;41.33;17.02;;;;;;;7.86;63.48;101872.56;5051191;28;20048;-75
2022/11/27 05:54:44;;;;;;;32.70;18.58;;;;;;;8.05;64.08;101905.50;5055078;28;20017;-77
2022/11/27 05:57:09;;;;;;;35.90;16.75;;;;;;;8.04;63.21;101894.88;5057672;28;20112;-78
2022/11/27 05:59:35;;;;;;;34.25;17.00;;;;;;;8.04;63.79;101889.53;5061255;28;20025;-80
2022/11/27 06:02:00;;;;;;;30.38;17.02;;;;;;;8.07;63.55;101889.38;5066080;28;20102;-77
2022/11/27 06:04:26;;;;;;;31.45;18.13;;;;;;;8.07;63.54;101892.06;5062708;28;20021;-78
2022/11/27 06:06:51;;;;;;;32.85;17.00;;;;;;;8.12;63.10;101890.00;5050376;28;20041;-77
2022/11/27 06:09:16;;;;;;;30.83;18.50;;;;;;;8.05;63.34;101885.88;5050741;28;20025;-77
2022/11/27 06:11:42;;;;;;;28.83;15.73;;;;;;;8.11;63.46;101886.44;5050436;28;20135;-76
2022/11/27 06:14:08;;;;;;;34.65;18.63;;;;;;;8.15;63.30;101892.53;5051899;28;20025;-77
2022/11/27 06:16:34;;;;;;;33.15;17.08;;;;;;;7.89;63.60;101874.22;5051924;28;20029;-78
2022/11/27 06:18:59;;;;;;;36.63;17.83;;;;;;;7.72;63.87;101866.16;5051385;28;20485;-78
2022/11/27 06:21:24;;;;;;;33.90;17.80;;;;;;;7.85;64.03;101883.34;5051297;28;20025;-77
2022/11/27 06:23:54;;;;;;;31.33;17.30;;;;;;;7.89;64.04;101882.28;5051407;28;20025;-78
2022/11/27 06:26:28;;;;;;;32.72;18.05;;;;;;;7.97;63.86;101888.09;5050565;28;20182;-76
2022/11/27 06:28:55;;;;;;;30.42;17.35;;;;;;;7.95;63.67;101898.03;5049325;28;20529;-76
2022/11/27 06:31:24;;;;;;;30.67;17.95;;;;;;;7.87;63.50;101886.81;5050865;28;20039;-77
2022/11/27 06:33:51;;;;;;;28.50;16.63;;;;;;;7.88;63.60;101885.88;5049844;28;20416;-76
2022/11/27 06:36:18;;;;;;;26.85;16.35;;;;;;;7.86;63.97;101891.31;5049469;28;20428;-77
2022/11/27 06:38:44;;;;;;;35.63;18.30;;;;;;;7.95;63.44;101898.88;5050933;28;20523;-78
2022/11/27 06:41:19;;;;;;;27.85;14.70;;;;;;;7.93;63.77;101903.44;5048609;28;20037;-77
2022/11/27 06:43:45;;;;;;;35.25;17.02;;;;;;;8.00;63.41;101904.00;5050689;28;20051;-78
2022/11/27 06:46:14;;;;;;;32.35;18.27;;;;;;;7.75;63.74;101857.97;5051092;28;20020;-76
2022/11/27 06:48:39;;;;;;;36.13;17.02;;;;;;;8.06;63.53;101911.75;5050775;28;20025;-78
2022/11/27 06:51:06;;;;;;;31.83;16.42;;;;;;;7.57;63.86;101831.19;5051293;28;20586;-76
2022/11/27 06:53:34;;;;;;;32.45;17.27;;;;;;;8.08;63.32;101908.03;5051012;28;20031;-79
2022/11/27 06:56:15;;;;;;;30.15;15.13;;;;;;;8.23;63.26;101938.53;5051414;28;20025;-77
2022/11/27 06:58:40;;;;;;;33.17;15.23;;;;;;;7.96;62.72;101883.66;5050546;28;20032;-76
2022/11/27 07:01:10;;;;;;;34.78;16.58;;;;;;;8.26;62.67;101930.34;5050191;28;20036;-77
2022/11/27 07:03:35;;;;;;;28.65;15.63;;;;;;;8.39;62.91;101934.19;5050279;28;20033;-75
2022/11/27 07:06:03;;;;;;;31.63;16.05;;;;;;;8.43;62.55;101935.75;5059868;28;20024;-76
2022/11/27 07:08:28;;;;;;;30.15;16.02;;;;;;;8.57;62.02;101937.72;5063760;28;20377;-76
2022/11/27 07:11:04;;;;;;;33.15;17.98;;;;;;;8.67;61.89;101923.75;5055315;28;20029;-75
2022/11/27 07:13:30;;;;;;;29.77;14.60;;;;;;;8.66;61.25;101907.72;5050384;28;20067;-75
2022/11/27 07:16:02;;;;;;;29.42;15.25;;;;;;;8.66;61.33;101895.19;5050022;28;20029;-75
2022/11/27 07:18:34;;;;;;;24.92;15.45;;;;;;;8.96;61.08;101937.44;5043075;28;20448;-77
2022/11/27 07:21:00;;;;;;;;;;;;;;;8.97;60.67;101931.97;5038173;28;20162;-79
2022/11/27 07:23:25;;;;;;;39.58;15.25;;;;;;;8.96;60.14;101926.69;5030072;28;19952;-76
2022/11/27 07:25:50;;;;;;;27.50;13.60;;;;;;;9.01;60.25;101925.50;5028136;28;20458;-78
2022/11/27 07:28:16;;;;;;;40.00;16.15;;;;;;;9.07;59.93;101913.56;5029133;28;20083;-78
2022/11/27 07:30:41;;;;;;;36.53;15.57;;;;;;;9.20;59.62;101928.88;5006428;28;20579;-78
2022/11/27 07:33:07;;;;;;;30.17;14.13;;;;;;;9.23;59.62;101933.25;5006484;28;20636;-77
2022/11/27 07:35:32;;;;;;;27.42;14.15;;;;;;;9.32;59.26;101924.69;5006189;28;20048;-78
2022/11/27 07:37:57;;;;;;;31.77;14.20;;;;;;;9.34;59.00;101925.47;5006442;28;20057;-77
2022/11/27 07:40:23;;;;;;;26.02;12.80;;;;;;;9.18;58.69;101895.03;5005781;28;20143;-78
2022/11/27 07:42:48;;;;;;;30.77;12.57;;;;;;;9.40;58.67;101927.81;4990085;28;20030;-77
2022/11/27 07:45:14;;;;;;;21.65;12.48;;;;;;;9.32;58.46;101889.78;5006455;28;20046;-76
2022/11/27 07:47:39;;;;;;;26.40;13.10;;;;;;;9.64;58.45;101922.84;5007027;28;20517;-76
2022/11/27 07:50:07;;;;;;;25.55;11.40;;;;;;;9.69;56.85;101918.94;5006438;28;20068;-78
2022/11/27 07:52:34;;;;;;;34.05;12.90;;;;;;;9.65;57.30;101927.28;5006232;28;20441;-77
2022/11/27 07:55:00;;;;;;;23.27;11.85;;;;;;;9.64;57.69;101925.53;5006134;28;20508;-77
2022/11/27 07:57:26;;;;;;;19.30;11.20;;;;;;;9.66;57.44;101934.41;5006159;28;20113;-78
2022/11/27 07:59:52;;;;;;;23.27;12.27;;;;;;;9.63;57.50;101916.63;5006365;28;20124;-78
2022/11/27 08:02:17;;;;;;;25.42;11.07;;;;;;;9.80;56.44;101938.03;5022625;28;20121;-78
2022/11/27 08:04:43;;;;;;;24.13;11.23;;;;;;;9.64;56.33;101942.53;5029123;28;20072;-77
2022/11/27 08:07:08;;;;;;;17.33;9.35;;;;;;;9.37;56.65;101895.75;5028881;28;20471;-77
2022/11/27 08:09:34;;;;;;;23.00;11.13;;;;;;;9.59;56.47;101941.06;5029576;28;20029;-77
2022/11/27 08:11:59;;;;;;;21.05;10.32;;;;;;;9.66;56.94;101937.94;5033561;28;20156;-79
2022/11/27 08:14:25;;;;;;;15.50;8.80;;;;;;;9.61;56.29;101944.53;5034755;28;20405;-77
2022/11/27 08:16:50;;;;;;;16.80;10.05;;;;;;;9.60;56.67;101949.03;5029564;28;20022;-76
2022/11/27 08:19:16;;;;;;;20.02;9.88;;;;;;;9.75;56.70;101948.16;5040022;28;20028;-76
2022/11/27 08:21:41;;;;;;;19.30;10.52;;;;;;;9.85;56.59;101945.81;5048711;28;20404;-77
2022/11/27 08:24:08;;;;;;;24.30;9.88;;;;;;;9.96;55.92;101935.31;5048837;28;20036;-76
2022/11/27 08:26:33;;;;;;;21.58;10.18;;;;;;;10.00;55.63;101933.34;5048778;28;20032;-80
2022/11/27 08:28:59;;;;;;;16.38;9.93;;;;;;;9.92;56.25;101939.13;5048578;28;20107;-79
2022/11/27 08:31:24;;;;;;;20.02;10.65;;;;;;;9.98;56.46;101927.16;5049115;28;20489;-77
2022/11/27 08:33:50;;;;;;;30.05;16.23;;;;;;;10.06;56.34;101935.66;5052271;28;20028;-79
2022/11/27 08:36:16;;;;;;;35.13;12.00;;;;;;;10.07;56.70;101922.13;5052343;28;20033;-78
2022/11/27 08:38:41;;;;;;;33.42;13.18;;;;;;;10.04;56.16;101899.94;5052068;28;20102;-78
2022/11/27 08:41:08;;;;;;;34.78;12.73;;;;;;;10.31;56.12;101930.59;5055365;28;20021;-76
2022/11/27 08:43:34;;;;;;;23.70;12.02;;;;;;;10.54;55.98;101946.22;5062112;28;20202;-77
2022/11/27 08:46:03;;;;;;;23.80;12.85;;;;;;;10.42;55.00;101912.00;5052494;28;20051;-76
2022/11/27 08:48:28;;;;;;;25.73;12.25;;;;;;;10.59;54.88;101941.41;5053375;28;20025;-76
2022/11/27 08:50:53;;;;;;;27.33;11.52;;;;;;;10.69;55.07;101942.59;5053621;28;20420;-79
2022/11/27 08:53:19;;;;;;;20.63;10.00;;;;;;;10.71;54.89;101929.03;5052810;28;20510;-77
2022/11/27 08:55:45;;;;;;;20.75;10.02;;;;;;;10.77;54.35;101934.91;5052005;28;20033;-78
2022/11/27 08:58:10;;;;;;;20.30;9.05;;;;;;;10.84;53.51;101922.81;5053406;28;20125;-77
2022/11/27 09:00:37;;;;;;;16.90;8.65;;;;;;;10.86;53.57;101918.19;5053291;28;20472;-77
2022/11/27 09:03:03;;;;;;;19.13;9.27;;;;;;;10.84;53.41;101914.75;5070433;28;20032;-76
2022/11/27 09:05:29;;;;;;;14.27;7.68;;;;;;;10.69;53.72;101904.94;5070475;28;20062;-77
2022/11/27 09:07:55;;;;;;;15.68;8.93;;;;;;;10.54;53.71;101862.84;5070633;28;20186;-77
2022/11/27 09:10:21;;;;;;;28.23;8.95;;;;;;;10.77;54.01;101899.94;5070715;28;20060;-78
2022/11/27 09:12:48;;;;;;;18.58;8.77;;;;;;;10.86;53.31;101898.50;5070030;28;20536;-76
2022/11/27 09:15:13;;;;;;;19.63;8.07;;;;;;;11.00;53.92;101908.41;5070143;28;20051;-77
2022/11/27 09:17:39;;;;;;;19.73;9.98;;;;;;;10.68;53.41;101830.53;5078463;28;20036;-77
2022/11/27 09:20:06;;;;;;;21.85;8.90;;;;;;;11.04;53.07;101885.72;5078224;28;20068;-75
2022/11/27 09:22:33;;;;;;;14.88;7.22;;;;;;;10.99;52.54;101875.22;5073447;28;20037;-76
2022/11/27 09:24:58;;;;;;;14.73;7.57;;;;;;;11.16;52.40;101893.03;5069197;28;20040;-75
2022/11/27 09:27:24;;;;;;;19.48;7.60;;;;;;;11.21;52.08;101897.16;5069259;28;20037;-75
2022/11/27 09:29:49;;;;;;;16.38;7.85;;;;;;;11.21;52.43;101885.50;5068862;28;20043;-75
2022/11/27 09:32:15;;;;;;;15.05;6.93;;;;;;;11.38;52.32;101896.91;5069280;28;20024;-75
2022/11/27 09:34:41;;;;;;;11.85;7.03;;;;;;;11.39;51.59;101878.94;5050535;28;20124;-75
2022/11/27 09:37:07;;;;;;;12.43;7.25;;;;;;;11.47;51.16;101879.28;5049313;28;20442;-74
2022/11/27 09:39:33;;;;;;;37.42;9.77;;;;;;;11.25;51.05;101849.34;5049303;28;20037;-73
2022/11/27 09:42:03;;;;;;;17.80;7.32;;;;;;;11.51;51.28;101872.75;5046886;28;20665;-76
2022/11/27 09:44:53;;;;;;;17.63;6.55;;;;;;;11.54;50.43;101867.16;5049218;28;20021;-75
2022/11/27 09:48:07;;;;;;;12.07;6.63;;;;;;;11.66;49.97;101866.34;5050432;28;20033;-74
2022/11/27 09:50:41;;;;;;;14.75;7.00;;;;;;;11.73;50.17;101856.94;5007237;28;20069;-75
2022/11/27 09:53:23;;;;;;;12.40;6.68;;;;;;;11.79;49.17;101856.53;5007510;28;20124;-75
2022/11/27 09:55:52;;;;;;;14.60;6.13;;;;;;;11.66;49.22;101843.91;5007943;28;20034;-76
2022/11/27 09:58:40;;;;;;;13.27;5.85;;;;;;;11.76;48.45;101856.72;5007580;28;20128;-75
2022/11/27 10:01:17;;;;;;;18.85;7.22;;;;;;;11.74;48.43;101842.47;5007374;28;20129;-77
2022/11/27 10:03:44;;;;;;;17.08;6.75;;;;;;;11.83;49.05;101838.31;4949076;29;20105;-75
2022/11/27 10:06:34;;;;;;;22.40;6.78;;;;;;;11.77;49.54;101831.47;4951080;29;20050;-76
2022/11/27 10:09:17;;;;;;;13.82;6.82;;;;;;;11.89;49.67;101836.06;4952879;29;20085;-74
2022/11/27 10:12:18;;;;;;;15.73;6.68;;;;;;;12.05;48.86;101835.03;4948953;29;20671;-75
2022/11/27 10:15:10;;;;;;;21.55;6.38;;;;;;;12.05;48.45;101829.63;4910729;29;20048;-74
2022/11/27 10:18:01;;;;;;;13.90;6.60;;;;;;;12.18;48.46;101825.97;4910697;29;20040;-73
2022/11/27 10:20:48;;;;;;;9.48;5.95;;;;;;;12.11;48.67;101786.06;4910396;29;20048;-75
2022/11/27 10:23:19;;;;;;;12.90;7.35;;;;;;;12.42;47.95;101828.78;4914544;29;20044;-75
2022/11/27 10:25:51;;;;;;;24.90;6.35;;;;;;;12.49;48.19;101828.28;4935475;29;20103;-75
2022/11/27 10:28:25;;;;;;;14.83;6.00;;;;;;;12.62;48.09;101819.31;4933746;29;20080;-75
2022/11/27 10:31:01;;;;;;;20.58;8.13;;;;;;;12.74;47.46;101819.31;4929922;29;20027;-76
2022/11/27 10:33:37;;;;;;;20.05;8.32;;;;;;;12.57;47.24;101768.34;4929852;29;20134;-78
2022/11/27 10:36:04;;;;;;;28.80;9.43;;;;;;;12.72;47.38;101818.53;4987149;28;20077;-75
2022/11/27 10:38:34;;;;;;;13.25;7.40;;;;;;;12.48;47.23;101769.00;4987261;28;20445;-75
2022/11/27 10:41:06;;;;;;;13.85;7.28;;;;;;;12.79;47.97;101816.25;4987803;28;20030;-76
2022/11/27 10:43:31;;;;;;;12.63;7.93;;;;;;;12.59;47.24;101769.13;4989091;28;20102;-75
2022/11/27 10:46:20;;;;;;;13.88;7.57;;;;;;;12.75;47.82;101810.22;4991288;28;20073;-77
2022/11/27 10:48:46;;;;;;;16.30;7.10;;;;;;;12.58;47.94;101807.84;4992558;28;20038;-75
2022/11/27 10:51:19;;;;;;;19.08;7.18;;;;;;;12.68;47.17;101808.94;5006688;28;20175;-76
2022/11/27 10:53:49;;;;;;;17.65;6.93;;;;;;;12.75;47.56;101802.09;5030208;28;20128;-75
2022/11/27 10:56:47;;;;;;;18.58;8.20;;;;;;;12.88;47.66;101802.97;5029579;28;20029;-74
2022/11/27 10:59:18;;;;;;;15.00;7.20;;;;;;;12.98;47.49;101806.72;5028945;28;20508;-75
2022/11/27 11:01:52;;;;;;;20.33;7.43;;;;;;;12.69;47.07;101789.06;5029438;28;20459;-76
2022/11/27 11:04:25;;;;;;;19.00;7.68;;;;;;;12.88;47.22;101794.00;5029127;28;20029;-74
2022/11/27 11:06:51;;;;;;;18.27;7.20;;;;;;;13.03;47.08;101800.97;5029199;28;20446;-76
2022/11/27 11:09:27;;;;;;;22.00;7.88;;;;;;;12.85;47.29;101764.50;5027878;28;20041;-76
2022/11/27 11:11:53;;;;;;;14.40;6.78;;;;;;;13.02;46.74;101794.75;5028975;28;20520;-76
2022/11/27 11:14:24;;;;;;;10.30;6.35;;;;;;;13.03;46.81;101793.75;5028846;28;20029;-75
2022/11/27 11:16:50;;;;;;;17.60;6.57;;;;;;;13.01;46.83;101784.91;5029476;28;20072;-75
2022/11/27 11:19:33;;;;;;;28.13;8.10;;;;;;;13.13;46.64;101780.47;5028431;28;20037;-76
2022/11/27 11:22:04;;;;;;;18.38;10.20;;;;;;;13.18;46.37;101772.88;5028841;28;20607;-75
2022/11/27 11:24:32;;;;;;;22.73;8.57;;;;;;;13.24;46.55;101779.69;5028916;28;20025;-77
2022/11/27 11:26:59;;;;;;;16.77;7.70;;;;;;;13.27;46.30;101774.06;5029175;28;20520;-77
2022/11/27 11:29:34;;;;;;;11.88;5.60;;;;;;;13.25;46.18;101773.28;5033433;28;20156;-75